Terminal Aerodrome Forecast
Issued by NWS Atlanta, GA

Home | Current Version | Previous Version | Text Only | Print | Product List | Glossary On
Versions: 1 2 3 4 5 6 7 8 9 10 11 12
223
FTUS42 KFFC 161720
TAFMCN
TAF
KMCN 161720Z 1618/1718 22005KT P6SM BKN250
     FM170000 29006KT P6SM BKN040 OVC100
     FM170500 31010KT P6SM -SN SCT015 BKN030 OVC060
     FM171500 31014G25KT P6SM SKC=

USA.gov is the U.S. government's official web portal to all federal, state and local government web resources and services.